sensor_id;sensor_type;location;lat;lon;timestamp;pressure;altitude;pressure_sealevel;temperature;humidity
59873;BME280;50750;51.636;4.948;2024-03-06T00:00:21;101906.95;;;13.02;64.57
59873;BME280;50750;51.636;4.948;2024-03-06T00:03:10;101905.36;;;13.02;64.47
59873;BME280;50750;51.636;4.948;2024-03-06T00:05:37;101905.40;;;13.01;64.60
59873;BME280;50750;51.636;4.948;2024-03-06T00:08:06;101910.34;;;13.00;64.63
59873;BME280;50750;51.636;4.948;2024-03-06T00:10:34;101912.46;;;13.00;64.60
59873;BME280;50750;51.636;4.948;2024-03-06T00:13:03;101915.11;;;12.99;64.65
59873;BME280;50750;51.636;4.948;2024-03-06T00:15:34;101916.19;;;12.98;64.49
59873;BME280;50750;51.636;4.948;2024-03-06T00:18:03;101918.66;;;12.98;64.47
59873;BME280;50750;51.636;4.948;2024-03-06T00:20:32;101922.34;;;12.99;64.45
59873;BME280;50750;51.636;4.948;2024-03-06T00:22:59;101923.22;;;12.98;64.59
59873;BME280;50750;51.636;4.948;2024-03-06T00:25:28;101924.79;;;12.99;64.38
59873;BME280;50750;51.636;4.948;2024-03-06T00:27:55;101927.77;;;12.99;64.43
59873;BME280;50750;51.636;4.948;2024-03-06T00:30:23;101930.05;;;12.99;64.51
59873;BME280;50750;51.636;4.948;2024-03-06T00:32:50;101931.48;;;12.99;64.45
59873;BME280;50750;51.636;4.948;2024-03-06T00:35:18;101931.99;;;12.99;64.53
59873;BME280;50750;51.636;4.948;2024-03-06T00:37:47;101930.96;;;12.98;64.37
59873;BME280;50750;51.636;4.948;2024-03-06T00:40:15;101935.00;;;12.98;64.31
59873;BME280;50750;51.636;4.948;2024-03-06T00:42:43;101934.14;;;12.98;64.37
59873;BME280;50750;51.636;4.948;2024-03-06T00:45:10;101936.08;;;12.97;64.51
59873;BME280;50750;51.636;4.948;2024-03-06T00:47:38;101935.04;;;12.97;64.29
59873;BME280;50750;51.636;4.948;2024-03-06T00:50:07;101944.91;;;12.96;64.39
59873;BME280;50750;51.636;4.948;2024-03-06T00:52:35;101946.32;;;12.96;64.53
59873;BME280;50750;51.636;4.948;2024-03-06T00:55:04;101949.32;;;12.95;64.45
59873;BME280;50750;51.636;4.948;2024-03-06T00:57:32;101947.92;;;12.95;64.34
59873;BME280;50750;51.636;4.948;2024-03-06T01:00:00;101950.02;;;12.95;64.51
59873;BME280;50750;51.636;4.948;2024-03-06T01:02:27;101954.23;;;12.96;64.24
59873;BME280;50750;51.636;4.948;2024-03-06T01:04:55;101956.35;;;12.95;64.33
59873;BME280;50750;51.636;4.948;2024-03-06T01:07:23;101958.45;;;12.96;64.28
59873;BME280;50750;51.636;4.948;2024-03-06T01:09:51;101963.38;;;12.95;64.30
59873;BME280;50750;51.636;4.948;2024-03-06T01:12:19;101967.77;;;12.95;64.17
59873;BME280;50750;51.636;4.948;2024-03-06T01:14:47;101969.89;;;12.95;64.10
59873;BME280;50750;51.636;4.948;2024-03-06T01:17:14;101966.91;;;12.94;64.14
59873;BME280;50750;51.636;4.948;2024-03-06T01:19:42;101970.08;;;12.94;64.18
59873;BME280;50750;51.636;4.948;2024-03-06T01:22:10;101967.30;;;12.93;63.92
59873;BME280;50750;51.636;4.948;2024-03-06T01:24:38;101968.70;;;12.93;64.16
59873;BME280;50750;51.636;4.948;2024-03-06T01:27:06;101967.15;;;12.92;64.20
59873;BME280;50750;51.636;4.948;2024-03-06T01:29:33;101970.68;;;12.91;64.07
59873;BME280;50750;51.636;4.948;2024-03-06T01:32:01;101967.71;;;12.91;64.41
59873;BME280;50750;51.636;4.948;2024-03-06T01:34:29;101971.04;;;12.91;64.18
59873;BME280;50750;51.636;4.948;2024-03-06T01:36:57;101971.74;;;12.91;64.12
59873;BME280;50750;51.636;4.948;2024-03-06T01:39:24;101971.73;;;12.91;64.20
59873;BME280;50750;51.636;4.948;2024-03-06T01:41:52;101972.80;;;12.90;64.10
59873;BME280;50750;51.636;4.948;2024-03-06T01:44:20;101973.32;;;12.91;64.17
59873;BME280;50750;51.636;4.948;2024-03-06T01:46:48;101978.77;;;12.91;63.91
59873;BME280;50750;51.636;4.948;2024-03-06T01:49:16;101977.89;;;12.91;63.97
59873;BME280;50750;51.636;4.948;2024-03-06T01:51:48;101981.25;;;12.90;63.91
59873;BME280;50750;51.636;4.948;2024-03-06T01:54:17;101979.50;;;12.90;63.72
59873;BME280;50750;51.636;4.948;2024-03-06T01:56:46;101977.58;;;12.89;63.94
59873;BME280;50750;51.636;4.948;2024-03-06T01:59:16;101982.69;;;12.89;64.07
59873;BME280;50750;51.636;4.948;2024-03-06T02:01:45;101986.21;;;12.88;63.84
59873;BME280;50750;51.636;4.948;2024-03-06T02:04:14;101987.11;;;12.88;63.80
59873;BME280;50750;51.636;4.948;2024-03-06T02:06:45;101988.36;;;12.87;63.95
59873;BME280;50750;51.636;4.948;2024-03-06T02:09:13;101991.72;;;12.86;64.02
59873;BME280;50750;51.636;4.948;2024-03-06T02:11:41;101994.70;;;12.86;63.83
59873;BME280;50750;51.636;4.948;2024-03-06T02:14:10;102000.68;;;12.86;64.12
59873;BME280;50750;51.636;4.948;2024-03-06T02:16:38;102002.27;;;12.86;63.77
59873;BME280;50750;51.636;4.948;2024-03-06T02:19:06;102008.59;;;12.86;63.91
59873;BME280;50750;51.636;4.948;2024-03-06T02:21:34;102007.54;;;12.86;63.89
59873;BME280;50750;51.636;4.948;2024-03-06T02:24:01;102006.30;;;12.86;63.90
59873;BME280;50750;51.636;4.948;2024-03-06T02:26:29;102009.45;;;12.86;63.86
59873;BME280;50750;51.636;4.948;2024-03-06T02:28:59;102008.77;;;12.85;63.83
59873;BME280;50750;51.636;4.948;2024-03-06T02:31:26;102010.18;;;12.85;63.84
59873;BME280;50750;51.636;4.948;2024-03-06T02:33:54;102009.14;;;12.84;63.86
59873;BME280;50750;51.636;4.948;2024-03-06T02:36:21;102010.93;;;12.83;63.81
59873;BME280;50750;51.636;4.948;2024-03-06T02:38:49;102011.13;;;12.82;63.73
59873;BME280;50750;51.636;4.948;2024-03-06T02:41:17;102012.02;;;12.82;63.92
59873;BME280;50750;51.636;4.948;2024-03-06T02:43:44;102014.48;;;12.81;63.75
59873;BME280;50750;51.636;4.948;2024-03-06T02:46:12;102011.70;;;12.80;63.91
59873;BME280;50750;51.636;4.948;2024-03-06T02:48:40;102007.68;;;12.79;63.92
59873;BME280;50750;51.636;4.948;2024-03-06T02:51:07;102007.85;;;12.80;64.03
59873;BME280;50750;51.636;4.948;2024-03-06T02:53:35;102007.85;;;12.79;63.96
59873;BME280;50750;51.636;4.948;2024-03-06T02:56:03;102009.27;;;12.79;63.73
59873;BME280;50750;51.636;4.948;2024-03-06T02:58:32;102011.52;;;12.80;63.69
59873;BME280;50750;51.636;4.948;2024-03-06T03:01:00;102008.36;;;12.80;63.86
59873;BME280;50750;51.636;4.948;2024-03-06T03:03:28;102014.70;;;12.80;63.93
59873;BME280;50750;51.636;4.948;2024-03-06T03:05:56;102015.04;;;12.80;63.93
59873;BME280;50750;51.636;4.948;2024-03-06T03:08:24;102017.00;;;12.79;63.83
59873;BME280;50750;51.636;4.948;2024-03-06T03:10:52;102018.05;;;12.79;63.78
59873;BME280;50750;51.636;4.948;2024-03-06T03:13:20;102022.27;;;12.79;63.68
59873;BME280;50750;51.636;4.948;2024-03-06T03:15:49;102021.20;;;12.79;63.74
59873;BME280;50750;51.636;4.948;2024-03-06T03:18:16;102023.16;;;12.79;63.85
59873;BME280;50750;51.636;4.948;2024-03-06T03:20:45;102022.48;;;12.77;63.92
59873;BME280;50750;51.636;4.948;2024-03-06T03:23:13;102021.25;;;12.77;63.73
59873;BME280;50750;51.636;4.948;2024-03-06T03:25:43;102020.92;;;12.76;63.88
59873;BME280;50750;51.636;4.948;2024-03-06T03:28:11;102021.27;;;12.76;63.80
59873;BME280;50750;51.636;4.948;2024-03-06T03:30:39;102024.98;;;12.75;63.89
59873;BME280;50750;51.636;4.948;2024-03-06T03:33:07;102026.38;;;12.76;63.80
59873;BME280;50750;51.636;4.948;2024-03-06T03:35:35;102027.25;;;12.76;63.81
59873;BME280;50750;51.636;4.948;2024-03-06T03:38:02;102028.84;;;12.76;63.82
59873;BME280;50750;51.636;4.948;2024-03-06T03:40:30;102026.37;;;12.76;63.85
59873;BME280;50750;51.636;4.948;2024-03-06T03:42:59;102026.72;;;12.77;63.86
59873;BME280;50750;51.636;4.948;2024-03-06T03:45:33;102029.19;;;12.76;63.83
59873;BME280;50750;51.636;4.948;2024-03-06T03:48:01;102030.77;;;12.76;63.76
59873;BME280;50750;51.636;4.948;2024-03-06T03:50:29;102032.70;;;12.76;63.87
59873;BME280;50750;51.636;4.948;2024-03-06T03:52:58;102035.51;;;12.76;63.70
59873;BME280;50750;51.636;4.948;2024-03-06T03:55:27;102036.05;;;12.75;63.83
59873;BME280;50750;51.636;4.948;2024-03-06T03:57:55;102037.47;;;12.75;63.81
59873;BME280;50750;51.636;4.948;2024-03-06T04:00:23;102037.84;;;12.74;63.79
59873;BME280;50750;51.636;4.948;2024-03-06T04:02:51;102033.64;;;12.73;63.78
59873;BME280;50750;51.636;4.948;2024-03-06T04:05:20;102035.74;;;12.73;63.88
59873;BME280;50750;51.636;4.948;2024-03-06T04:07:48;102034.19;;;12.72;63.90
59873;BME280;50750;51.636;4.948;2024-03-06T04:10:16;102037.35;;;12.72;63.86
59873;BME280;50750;51.636;4.948;2024-03-06T04:12:44;102035.59;;;12.72;63.77
59873;BME280;50750;51.636;4.948;2024-03-06T04:15:11;102033.64;;;12.73;63.95
59873;BME280;50750;51.636;4.948;2024-03-06T04:17:39;102032.57;;;12.73;63.88
59873;BME280;50750;51.636;4.948;2024-03-06T04:20:09;102036.79;;;12.73;63.90
59873;BME280;50750;51.636;4.948;2024-03-06T04:22:39;102038.90;;;12.73;64.06
59873;BME280;50750;51.636;4.948;2024-03-06T04:25:09;102041.71;;;12.73;63.78
59873;BME280;50750;51.636;4.948;2024-03-06T04:27:37;102045.23;;;12.74;63.76
59873;BME280;50750;51.636;4.948;2024-03-06T04:30:07;102046.46;;;12.74;64.02
59873;BME280;50750;51.636;4.948;2024-03-06T04:32:36;102047.34;;;12.73;63.95
59873;BME280;50750;51.636;4.948;2024-03-06T04:35:05;102049.11;;;12.73;63.80
59873;BME280;50750;51.636;4.948;2024-03-06T04:37:34;102051.59;;;12.72;63.71
59873;BME280;50750;51.636;4.948;2024-03-06T04:40:02;102047.22;;;12.71;63.77
59873;BME280;50750;51.636;4.948;2024-03-06T04:42:34;102052.32;;;12.71;63.82
59873;BME280;50750;51.636;4.948;2024-03-06T04:45:03;102059.70;;;12.70;63.83
59873;BME280;50750;51.636;4.948;2024-03-06T04:47:31;102062.01;;;12.69;63.78
59873;BME280;50750;51.636;4.948;2024-03-06T04:49:59;102062.37;;;12.69;63.87
59873;BME280;50750;51.636;4.948;2024-03-06T04:52:26;102066.39;;;12.70;63.73
59873;BME280;50750;51.636;4.948;2024-03-06T04:54:54;102067.97;;;12.70;63.76
59873;BME280;50750;51.636;4.948;2024-03-06T04:57:22;102075.36;;;12.70;63.62
59873;BME280;50750;51.636;4.948;2024-03-06T04:59:49;102073.59;;;12.70;63.83
59873;BME280;50750;51.636;4.948;2024-03-06T05:02:17;102072.89;;;12.70;63.65
59873;BME280;50750;51.636;4.948;2024-03-06T05:04:44;102082.20;;;12.70;63.67
59873;BME280;50750;51.636;4.948;2024-03-06T05:07:13;102082.73;;;12.70;63.60
59873;BME280;50750;51.636;4.948;2024-03-06T05:09:41;102085.73;;;12.70;63.87
59873;BME280;50750;51.636;4.948;2024-03-06T05:12:09;102089.06;;;12.70;63.64
59873;BME280;50750;51.636;4.948;2024-03-06T05:14:37;102090.49;;;12.69;63.79
59873;BME280;50750;51.636;4.948;2024-03-06T05:17:04;102094.72;;;12.68;63.68
59873;BME280;50750;51.636;4.948;2024-03-06T05:19:32;102097.19;;;12.68;63.73
59873;BME280;50750;51.636;4.948;2024-03-06T05:22:00;102099.49;;;12.67;63.74
59873;BME280;50750;51.636;4.948;2024-03-06T05:24:28;102101.27;;;12.66;63.63
59873;BME280;50750;51.636;4.948;2024-03-06T05:26:56;102107.78;;;12.65;63.74
59873;BME280;50750;51.636;4.948;2024-03-06T05:29:23;102117.09;;;12.65;63.67
59873;BME280;50750;51.636;4.948;2024-03-06T05:31:51;102119.73;;;12.65;63.64
59873;BME280;50750;51.636;4.948;2024-03-06T05:34:19;102118.31;;;12.65;63.77
59873;BME280;50750;51.636;4.948;2024-03-06T05:36:47;102120.08;;;12.65;63.47
59873;BME280;50750;51.636;4.948;2024-03-06T05:39:14;102124.31;;;12.65;63.43
59873;BME280;50750;51.636;4.948;2024-03-06T05:41:42;102129.92;;;12.65;63.51
59873;BME280;50750;51.636;4.948;2024-03-06T05:44:10;102131.33;;;12.65;63.51
59873;BME280;50750;51.636;4.948;2024-03-06T05:46:37;102132.56;;;12.65;63.61
59873;BME280;50750;51.636;4.948;2024-03-06T05:49:05;102138.36;;;12.65;63.39
59873;BME280;50750;51.636;4.948;2024-03-06T05:51:33;102148.91;;;12.65;63.55
59873;BME280;50750;51.636;4.948;2024-03-06T05:54:00;102148.91;;;12.65;63.47
59873;BME280;50750;51.636;4.948;2024-03-06T05:56:28;102151.21;;;12.64;63.28
59873;BME280;50750;51.636;4.948;2024-03-06T05:58:56;102151.75;;;12.63;63.44
59873;BME280;50750;51.636;4.948;2024-03-06T06:01:23;102158.80;;;12.63;63.42
59873;BME280;50750;51.636;4.948;2024-03-06T06:03:51;102157.75;;;12.62;63.27
59873;BME280;50750;51.636;4.948;2024-03-06T06:06:18;102156.52;;;12.61;63.25
59873;BME280;50750;51.636;4.948;2024-03-06T06:08:46;102153.56;;;12.60;63.39
59873;BME280;50750;51.636;4.948;2024-03-06T06:11:14;102155.67;;;12.59;63.33
59873;BME280;50750;51.636;4.948;2024-03-06T06:13:42;102159.57;;;12.58;63.29
59873;BME280;50750;51.636;4.948;2024-03-06T06:16:09;102162.39;;;12.58;63.46
59873;BME280;50750;51.636;4.948;2024-03-06T06:18:37;102166.27;;;12.58;63.37
59873;BME280;50750;51.636;4.948;2024-03-06T06:21:05;102174.34;;;12.58;63.32
59873;BME280;50750;51.636;4.948;2024-03-06T06:23:34;102175.02;;;12.58;63.26
59873;BME280;50750;51.636;4.948;2024-03-06T06:26:02;102181.02;;;12.58;63.22
59873;BME280;50750;51.636;4.948;2024-03-06T06:28:30;102188.39;;;12.58;63.27
59873;BME280;50750;51.636;4.948;2024-03-06T06:30:57;102190.66;;;12.59;63.40
59873;BME280;50750;51.636;4.948;2024-03-06T06:33:25;102193.13;;;12.58;63.42
59873;BME280;50750;51.636;4.948;2024-03-06T06:35:52;102198.40;;;12.58;63.33
59873;BME280;50750;51.636;4.948;2024-03-06T06:38:21;102199.46;;;12.58;63.23
59873;BME280;50750;51.636;4.948;2024-03-06T06:40:48;102204.21;;;12.58;63.30
59873;BME280;50750;51.636;4.948;2024-03-06T06:43:16;102204.40;;;12.57;63.39
59873;BME280;50750;51.636;4.948;2024-03-06T06:45:44;102209.85;;;12.56;63.31
59873;BME280;50750;51.636;4.948;2024-03-06T06:48:12;102215.50;;;12.55;62.82
59873;BME280;50750;51.636;4.948;2024-03-06T06:50:39;102218.52;;;12.53;62.55
59873;BME280;50750;51.636;4.948;2024-03-06T06:53:07;102219.95;;;12.51;62.73
59873;BME280;50750;51.636;4.948;2024-03-06T06:55:35;102223.11;;;12.51;62.77
59873;BME280;50750;51.636;4.948;2024-03-06T06:58:04;102221.73;;;12.50;62.94
59873;BME280;50750;51.636;4.948;2024-03-06T07:00:31;102228.59;;;12.50;62.99
59873;BME280;50750;51.636;4.948;2024-03-06T07:03:00;102231.42;;;12.49;62.98
59873;BME280;50750;51.636;4.948;2024-03-06T07:05:28;102231.25;;;12.48;63.16
59873;BME280;50750;51.636;4.948;2024-03-06T07:07:56;102233.35;;;12.49;63.05
59873;BME280;50750;51.636;4.948;2024-03-06T07:10:24;102237.40;;;12.49;63.09
59873;BME280;50750;51.636;4.948;2024-03-06T07:12:51;102240.02;;;12.49;63.22
59873;BME280;50750;51.636;4.948;2024-03-06T07:15:19;102245.81;;;12.50;63.46
59873;BME280;50750;51.636;4.948;2024-03-06T07:17:47;102245.27;;;12.50;63.25
59873;BME280;50750;51.636;4.948;2024-03-06T07:20:15;102245.44;;;12.51;63.29
59873;BME280;50750;51.636;4.948;2024-03-06T07:22:43;102246.48;;;12.51;63.08
59873;BME280;50750;51.636;4.948;2024-03-06T07:25:11;102244.55;;;12.51;63.13
59873;BME280;50750;51.636;4.948;2024-03-06T07:27:39;102247.71;;;12.51;63.20
59873;BME280;50750;51.636;4.948;2024-03-06T07:30:09;102254.39;;;12.51;63.32
59873;BME280;50750;51.636;4.948;2024-03-06T07:32:38;102257.57;;;12.50;63.38
59873;BME280;50750;51.636;4.948;2024-03-06T07:35:07;102261.42;;;12.51;63.12
59873;BME280;50750;51.636;4.948;2024-03-06T07:37:35;102263.90;;;12.50;63.24
59873;BME280;50750;51.636;4.948;2024-03-06T07:40:03;102265.49;;;12.48;63.30
59873;BME280;50750;51.636;4.948;2024-03-06T07:42:32;102268.84;;;12.49;63.28
59873;BME280;50750;51.636;4.948;2024-03-06T07:45:00;102269.02;;;12.48;63.46
59873;BME280;50750;51.636;4.948;2024-03-06T07:47:28;102273.25;;;12.47;63.41
59873;BME280;50750;51.636;4.948;2024-03-06T07:49:55;102277.13;;;12.47;63.52
59873;BME280;50750;51.636;4.948;2024-03-06T07:52:23;102282.59;;;12.47;63.54
59873;BME280;50750;51.636;4.948;2024-03-06T07:54:51;102285.91;;;12.47;63.52
59873;BME280;50750;51.636;4.948;2024-03-06T07:57:19;102293.27;;;12.48;63.33
59873;BME280;50750;51.636;4.948;2024-03-06T07:59:48;102293.61;;;12.48;63.40
59873;BME280;50750;51.636;4.948;2024-03-06T08:02:16;102295.20;;;12.48;63.42
59873;BME280;50750;51.636;4.948;2024-03-06T08:04:44;102291.87;;;12.48;63.54
59873;BME280;50750;51.636;4.948;2024-03-06T08:07:12;102293.61;;;12.48;63.54
59873;BME280;50750;51.636;4.948;2024-03-06T08:09:39;102293.27;;;12.48;63.39
59873;BME280;50750;51.636;4.948;2024-03-06T08:12:08;102305.21;;;12.48;63.41
59873;BME280;50750;51.636;4.948;2024-03-06T08:14:36;102306.80;;;12.48;63.65
59873;BME280;50750;51.636;4.948;2024-03-06T08:17:04;102305.05;;;12.47;63.65
59873;BME280;50750;51.636;4.948;2024-03-06T08:19:31;102305.40;;;12.47;63.76
59873;BME280;50750;51.636;4.948;2024-03-06T08:21:59;102309.98;;;12.47;63.72
59873;BME280;50750;51.636;4.948;2024-03-06T08:24:28;102309.11;;;12.47;63.76
59873;BME280;50750;51.636;4.948;2024-03-06T08:26:55;102314.02;;;12.47;63.75
59873;BME280;50750;51.636;4.948;2024-03-06T08:29:24;102314.21;;;12.46;63.65
59873;BME280;50750;51.636;4.948;2024-03-06T08:31:51;102321.05;;;12.46;63.73
59873;BME280;50750;51.636;4.948;2024-03-06T08:34:20;102321.44;;;12.45;63.63
59873;BME280;50750;51.636;4.948;2024-03-06T08:36:49;102325.27;;;12.46;63.76
59873;BME280;50750;51.636;4.948;2024-03-06T08:39:17;102327.21;;;12.46;63.65
59873;BME280;50750;51.636;4.948;2024-03-06T08:41:45;102331.41;;;12.47;63.88
59873;BME280;50750;51.636;4.948;2024-03-06T08:44:12;102333.70;;;12.47;63.82
59873;BME280;50750;51.636;4.948;2024-03-06T08:46:40;102334.75;;;12.47;63.74
59873;BME280;50750;51.636;4.948;2024-03-06T08:49:08;102336.84;;;12.48;63.76
59873;BME280;50750;51.636;4.948;2024-03-06T08:51:35;102338.41;;;12.48;63.69
59873;BME280;50750;51.636;4.948;2024-03-06T08:54:03;102339.29;;;12.49;63.71
59873;BME280;50750;51.636;4.948;2024-03-06T08:56:31;102339.64;;;12.49;63.79
59873;BME280;50750;51.636;4.948;2024-03-06T08:59:01;102341.23;;;12.49;63.83
59873;BME280;50750;51.636;4.948;2024-03-06T09:01:29;102341.58;;;12.49;63.86
59873;BME280;50750;51.636;4.948;2024-03-06T09:03:57;102347.02;;;12.49;63.76
59873;BME280;50750;51.636;4.948;2024-03-06T09:06:25;102349.48;;;12.49;63.90
59873;BME280;50750;51.636;4.948;2024-03-06T09:08:52;102352.48;;;12.48;63.96
59873;BME280;50750;51.636;4.948;2024-03-06T09:11:20;102354.41;;;12.48;63.72
59873;BME280;50750;51.636;4.948;2024-03-06T09:13:49;102357.77;;;12.47;63.91
59873;BME280;50750;51.636;4.948;2024-03-06T09:16:16;102358.29;;;12.47;63.96
59873;BME280;50750;51.636;4.948;2024-03-06T09:18:45;102361.09;;;12.48;63.97
59873;BME280;50750;51.636;4.948;2024-03-06T09:21:12;102365.13;;;12.48;64.24
59873;BME280;50750;51.636;4.948;2024-03-06T09:23:40;102365.83;;;12.49;64.08
59873;BME280;50750;51.636;4.948;2024-03-06T09:26:08;102365.65;;;12.49;64.07
59873;BME280;50750;51.636;4.948;2024-03-06T09:28:35;102370.73;;;12.50;63.89
59873;BME280;50750;51.636;4.948;2024-03-06T09:31:03;102375.65;;;12.50;63.91
59873;BME280;50750;51.636;4.948;2024-03-06T09:33:31;102376.69;;;12.51;64.20
59873;BME280;50750;51.636;4.948;2024-03-06T09:35:59;102379.67;;;12.51;64.23
59873;BME280;50750;51.636;4.948;2024-03-06T09:38:27;102381.60;;;12.51;64.15
59873;BME280;50750;51.636;4.948;2024-03-06T09:40:57;102381.94;;;12.51;64.20
59873;BME280;50750;51.636;4.948;2024-03-06T09:43:24;102383.00;;;12.51;64.17
59873;BME280;50750;51.636;4.948;2024-03-06T09:45:52;102382.83;;;12.51;64.14
59873;BME280;50750;51.636;4.948;2024-03-06T09:48:21;102383.55;;;12.50;64.22
59873;BME280;50750;51.636;4.948;2024-03-06T09:50:50;102389.70;;;12.50;64.34
59873;BME280;50750;51.636;4.948;2024-03-06T09:53:19;102390.59;;;12.50;64.31
59873;BME280;50750;51.636;4.948;2024-03-06T09:55:48;102393.91;;;12.50;64.03
59873;BME280;50750;51.636;4.948;2024-03-06T09:58:17;102400.41;;;12.51;64.20
59873;BME280;50750;51.636;4.948;2024-03-06T10:00:44;102399.87;;;12.51;64.24
59873;BME280;50750;51.636;4.948;2024-03-06T10:03:14;102404.61;;;12.52;64.12
59873;BME280;50750;51.636;4.948;2024-03-06T10:05:41;102408.98;;;12.53;64.47
59873;BME280;50750;51.636;4.948;2024-03-06T10:08:10;102410.89;;;12.54;64.41
59873;BME280;50750;51.636;4.948;2024-03-06T10:10:39;102407.55;;;12.55;64.33
59873;BME280;50750;51.636;4.948;2024-03-06T10:13:08;102410.71;;;12.55;64.03
59873;BME280;50750;51.636;4.948;2024-03-06T10:15:36;102412.80;;;12.56;64.38
59873;BME280;50750;51.636;4.948;2024-03-06T10:18:12;102413.50;;;12.56;64.09
59873;BME280;50750;51.636;4.948;2024-03-06T10:20:40;102415.96;;;12.57;64.16
59873;BME280;50750;51.636;4.948;2024-03-06T10:23:10;102418.23;;;12.58;64.30
59873;BME280;50750;51.636;4.948;2024-03-06T10:25:38;102419.65;;;12.57;64.25
59873;BME280;50750;51.636;4.948;2024-03-06T10:28:07;102421.75;;;12.58;64.22
59873;BME280;50750;51.636;4.948;2024-03-06T10:30:36;102429.30;;;12.58;64.09
59873;BME280;50750;51.636;4.948;2024-03-06T10:33:05;102425.44;;;12.58;64.33
59873;BME280;50750;51.636;4.948;2024-03-06T10:35:33;102427.19;;;12.58;64.29
59873;BME280;50750;51.636;4.948;2024-03-06T10:38:01;102428.40;;;12.59;64.30
59873;BME280;50750;51.636;4.948;2024-03-06T10:40:31;102421.20;;;12.60;64.35
59873;BME280;50750;51.636;4.948;2024-03-06T10:43:00;102426.27;;;12.61;64.48
59873;BME280;50750;51.636;4.948;2024-03-06T10:45:38;102428.19;;;12.63;64.37
59873;BME280;50750;51.636;4.948;2024-03-06T10:48:08;102425.36;;;12.64;64.20
59873;BME280;50750;51.636;4.948;2024-03-06T10:50:40;102426.23;;;12.65;64.30
59873;BME280;50750;51.636;4.948;2024-03-06T10:53:09;102423.93;;;12.66;64.30
59873;BME280;50750;51.636;4.948;2024-03-06T10:55:38;102428.14;;;12.67;64.42
59873;BME280;50750;51.636;4.948;2024-03-06T10:58:07;102426.88;;;12.68;64.27
59873;BME280;50750;51.636;4.948;2024-03-06T11:00:36;102431.09;;;12.68;64.24
59873;BME280;50750;51.636;4.948;2024-03-06T11:03:05;102434.44;;;12.69;64.38
59873;BME280;50750;51.636;4.948;2024-03-06T11:05:36;102430.74;;;12.69;64.29
59873;BME280;50750;51.636;4.948;2024-03-06T11:08:09;102428.10;;;12.69;64.36
59873;BME280;50750;51.636;4.948;2024-03-06T11:10:38;102427.92;;;12.69;64.24
59873;BME280;50750;51.636;4.948;2024-03-06T11:13:21;102430.02;;;12.69;64.23
59873;BME280;50750;51.636;4.948;2024-03-06T11:15:51;102431.44;;;12.69;64.21
59873;BME280;50750;51.636;4.948;2024-03-06T11:18:43;102432.65;;;12.70;64.14
59873;BME280;50750;51.636;4.948;2024-03-06T11:21:28;102432.11;;;12.72;64.19
59873;BME280;50750;51.636;4.948;2024-03-06T11:24:23;102433.84;;;12.73;64.28
59873;BME280;50750;51.636;4.948;2024-03-06T11:26:57;102434.34;;;12.75;64.27
59873;BME280;50750;51.636;4.948;2024-03-06T11:29:28;102437.48;;;12.76;64.40
59873;BME280;50750;51.636;4.948;2024-03-06T11:32:05;102438.69;;;12.78;64.37
59873;BME280;50750;51.636;4.948;2024-03-06T11:34:35;102436.39;;;12.78;64.23
59873;BME280;50750;51.636;4.948;2024-03-06T11:37:07;102441.66;;;12.80;64.11
59873;BME280;50750;51.636;4.948;2024-03-06T11:39:37;102440.77;;;12.81;64.05
59873;BME280;50750;51.636;4.948;2024-03-06T11:42:06;102445.85;;;12.82;64.23
59873;BME280;50750;51.636;4.948;2024-03-06T11:44:36;102447.77;;;12.82;64.10
59873;BME280;50750;51.636;4.948;2024-03-06T11:47:05;102453.91;;;12.83;64.18
59873;BME280;50750;51.636;4.948;2024-03-06T11:49:36;102452.88;;;12.82;64.23
59873;BME280;50750;51.636;4.948;2024-03-06T11:52:06;102455.67;;;12.83;64.15
59873;BME280;50750;51.636;4.948;2024-03-06T11:54:36;102457.79;;;12.83;64.14
59873;BME280;50750;51.636;4.948;2024-03-06T11:57:05;102457.80;;;12.82;64.24
59873;BME280;50750;51.636;4.948;2024-03-06T11:59:34;102460.42;;;12.82;64.19
59873;BME280;50750;51.636;4.948;2024-03-06T12:02:03;102459.55;;;12.83;64.34
59873;BME280;50750;51.636;4.948;2024-03-06T12:04:33;102456.19;;;12.83;64.28
59873;BME280;50750;51.636;4.948;2024-03-06T12:07:01;102459.00;;;12.85;64.13
59873;BME280;50750;51.636;4.948;2024-03-06T12:09:31;102457.58;;;12.85;64.27
59873;BME280;50750;51.636;4.948;2024-03-06T12:12:00;102459.16;;;12.85;64.42
59873;BME280;50750;51.636;4.948;2024-03-06T12:14:27;102460.57;;;12.85;64.26
59873;BME280;50750;51.636;4.948;2024-03-06T12:16:58;102460.40;;;12.85;64.44
59873;BME280;50750;51.636;4.948;2024-03-06T12:19:27;102457.94;;;12.85;64.39
59873;BME280;50750;51.636;4.948;2024-03-06T12:21:55;102456.89;;;12.85;64.37
59873;BME280;50750;51.636;4.948;2024-03-06T12:24:25;102459.52;;;12.85;64.38
59873;BME280;50750;51.636;4.948;2024-03-06T12:27:00;102457.05;;;12.85;64.47
59873;BME280;50750;51.636;4.948;2024-03-06T12:29:30;102453.89;;;12.85;64.49
59873;BME280;50750;51.636;4.948;2024-03-06T12:31:59;102454.42;;;12.85;64.38
59873;BME280;50750;51.636;4.948;2024-03-06T12:34:26;102452.14;;;12.85;64.61
59873;BME280;50750;51.636;4.948;2024-03-06T12:36:54;102454.25;;;12.85;64.54
59873;BME280;50750;51.636;4.948;2024-03-06T12:39:24;102452.48;;;12.85;64.34
59873;BME280;50750;51.636;4.948;2024-03-06T12:41:51;102453.17;;;12.86;64.55
59873;BME280;50750;51.636;4.948;2024-03-06T12:44:20;102452.63;;;12.87;64.44
59873;BME280;50750;51.636;4.948;2024-03-06T12:46:48;102454.04;;;12.87;64.47
59873;BME280;50750;51.636;4.948;2024-03-06T12:49:16;102452.98;;;12.88;64.50
59873;BME280;50750;51.636;4.948;2024-03-06T12:51:45;102451.36;;;12.89;64.54
59873;BME280;50750;51.636;4.948;2024-03-06T12:54:13;102451.71;;;12.90;64.47
59873;BME280;50750;51.636;4.948;2024-03-06T12:56:41;102450.83;;;12.90;64.42